• Join FlightAware (Why Join?)
  • Login
  • US Flag 
04:36AM EDT


 

Airport Tracker/Info


-or-


 

Live Flight TrackerFlight Track Log ✈ N860BA ✈ 25-Aug-2013 ✈ KABQ - KTEB

Flight Track Log - Related Links

Times and Time Zones

All times are in EDT time to prevent confusion due to time zone crossing. See the N860BA flight status page for this flight to view local times or setup timezone preferences in your user account.

Time Position Orientation Groundspeed Altitude Reporting Facility
EDT Latitude Longitude Course Direction KTS MPH feet Rate Location/Type
04:31AM 35.0442 -106.5714 140° Southeast 164 189 6,000  Level Albuquerque Center
04:32AM 35.0078 -106.5342 140° Southeast 191 220 8,000 1,920 Climbing Albuquerque Center
04:33AM 34.9572 -106.5133 161° South 220 253 10,100 1,800 Climbing Albuquerque Center
04:35AM 34.9883 -106.4247 67° East 245 282 12,400 1,680 Climbing Albuquerque Center
04:36AM 35.0325 -106.3436 56° Northeast 284 327 14,200 1,980 Climbing Albuquerque Center
04:37AM 35.0786 -106.2558 57° Northeast 305 351 16,400 2,040 Climbing Albuquerque Center
04:38AM 35.1286 -106.1589 58° Northeast 312 359 18,300 1,680 Climbing Albuquerque Center
04:39AM 35.1675 -106.0622 64° Northeast 316 364 19,800 1,440 Climbing Albuquerque Center
04:40AM 35.2100 -105.9583 63° Northeast 334 384 21,200 1,320 Climbing Albuquerque Center
04:41AM 35.2528 -105.8514 64° Northeast 348 400 22,500 1,080 Climbing Albuquerque Center
04:42AM 35.2997 -105.7386 63° Northeast 366 421 23,400 840 Climbing Albuquerque Center
04:43AM 35.3478 -105.6178 64° Northeast 388 447 24,200 840 Climbing Albuquerque Center
04:44AM 35.4025 -105.4825 64° Northeast 405 466 25,200 900 Climbing Albuquerque Center
04:45AM 35.4550 -105.3522 64° Northeast 417 480 26,000 840 Climbing Albuquerque Center
04:46AM 35.5086 -105.2200 63° Northeast 425 489 26,900 840 Climbing Albuquerque Center
04:47AM 35.5636 -105.0847 63° Northeast 434 499 27,700 840 Climbing Albuquerque Center
04:48AM 35.6181 -104.9481 64° Northeast 438 504 28,600 840 Climbing Albuquerque Center
04:49AM 35.6711 -104.8117 64° Northeast 438 504 29,400 780 Climbing Albuquerque Center
04:50AM 35.7258 -104.6742 64° Northeast 440 506 30,200 780 Climbing Albuquerque Center
04:51AM 35.7803 -104.5350 64° Northeast 443 510 31,000 600 Climbing Albuquerque Center
04:52AM 35.8361 -104.3942 64° Northeast 448 516 31,500 480 Climbing Albuquerque Center
04:53AM 35.8925 -104.2506 64° Northeast 454 522 32,000 420 Climbing Albuquerque Center
04:54AM 35.9389 -104.1297 65° Northeast 460 529 32,400 420 Climbing Albuquerque Center
04:55AM 35.9944 -103.9847 65° Northeast 461 531 32,900 480 Climbing Albuquerque Center
04:56AM 36.0506 -103.8381 65° Northeast 466 536 33,400 480 Climbing Albuquerque Center
04:57AM 36.1064 -103.6925 65° Northeast 464 534 33,900 420 Climbing Albuquerque Center
04:58AM 36.1625 -103.5450 65° Northeast 467 537 34,300 420 Climbing Albuquerque Center
04:59AM 36.2192 -103.3992 64° Northeast 467 537 34,800 480 Climbing Albuquerque Center
05:00AM 36.2742 -103.2511 65° Northeast 467 537 35,300 480 Climbing Albuquerque Center
05:01AM 36.3297 -103.1039 65° Northeast 468 539 35,800 420 Climbing Albuquerque Center
05:02AM 36.3836 -102.9561 66° East 467 537 36,200 420 Climbing Albuquerque Center
05:03AM 36.4419 -102.8028 65° Northeast 466 536 36,700 360 Climbing Albuquerque Center
05:04AM 36.4961 -102.6572 65° Northeast 466 536 37,000 120 Climbing Albuquerque Center
05:05AM 36.5503 -102.5094 65° Northeast 467 537 37,000  Level Albuquerque Center
05:06AM 36.6039 -102.3597 66° East 472 543 37,000  Level Albuquerque Center
05:07AM 36.6589 -102.2111 65° Northeast 472 543 37,000  Level Albuquerque Center
05:08AM 36.7058 -102.0819 66° East 471 542 37,000  Level Albuquerque Center
05:09AM 36.7658 -101.9150 66° East 472 543 37,000  Level Albuquerque Center
05:10AM 36.8167 -101.7742 66° East 469 540 37,000  Level Albuquerque Center
05:11AM 36.8669 -101.6314 66° East 469 540 37,000  Level Albuquerque Center
05:12AM 36.9344 -101.4414 66° East 468 539 37,000  Level Kansas City Center
05:13AM 36.9853 -101.3008 66° East 468 539 37,000  Level Kansas City Center
05:14AM 37.0356 -101.1572 66° East 469 540 37,000  Level Kansas City Center
05:15AM 37.0850 -101.0147 66° East 469 540 37,000  Level Kansas City Center
05:16AM 37.1439 -100.8456 66° East 474 545 37,000  Level Kansas City Center
05:17AM 37.1936 -100.7017 67° East 475 547 37,000  Level Kansas City Center
05:18AM 37.2436 -100.5558 67° East 477 549 37,000  Level Kansas City Center
05:19AM 37.3025 -100.3861 66° East 479 551 37,000  Level Kansas City Center
05:20AM 37.3522 -100.2403 67° East 479 551 37,000  Level Kansas City Center
05:21AM 37.4022 -100.0944 67° East 478 550 37,000  Level Kansas City Center
05:22AM 37.4592 -99.9247 67° East 474 545 37,000  Level Kansas City Center
05:23AM 37.5086 -99.7786 67° East 475 547 37,000  Level Kansas City Center
05:24AM 37.5578 -99.6325 67° East 475 547 37,000  Level Kansas City Center
05:25AM 37.6158 -99.4600 67° East 478 550 37,000  Level Kansas City Center
05:26AM 37.6586 -99.3283 68° East 474 545 37,000  Level Kansas City Center
05:27AM 37.7103 -99.1753 67° East 473 544 37,000  Level Kansas City Center
05:28AM 37.7597 -99.0214 68° East 473 544 37,000  Level Kansas City Center
05:29AM 37.8094 -98.8681 68° East 472 543 37,000  Level Kansas City Center
05:30AM 37.8589 -98.7131 68° East 474 545 37,000  Level Kansas City Center
05:31AM 37.9114 -98.5567 67° East 472 543 37,000  Level Kansas City Center
05:32AM 37.9603 -98.4069 67° East 474 545 37,000  Level Kansas City Center
05:33AM 38.0097 -98.2519 68° East 472 543 37,000 60 Level Kansas City Center
05:34AM 38.0611 -98.0908 68° East 467 537 37,200 240 Climbing Kansas City Center
05:35AM 38.1094 -97.9333 69° East 472 543 37,500 300 Climbing Kansas City Center
05:36AM 38.1572 -97.7783 69° East 468 539 37,800 300 Climbing Kansas City Center
05:37AM 38.2064 -97.6233 68° East 474 545 38,100 300 Climbing Kansas City Center
05:38AM 38.2542 -97.4683 69° East 470 541 38,400 300 Climbing Kansas City Center
05:39AM 38.3019 -97.3142 68° East 468 539 38,700 240 Climbing Kansas City Center
05:40AM 38.3489 -97.1600 69° East 468 539 38,900 120 Climbing Kansas City Center
05:41AM 38.3964 -97.0061 68° East 467 537 39,000  Climbing Kansas City Center
05:42AM 38.4419 -96.8528 69° East 464 534 39,000  Level Kansas City Center
05:43AM 38.4844 -96.7114 69° East 460 529 39,000  Level Kansas City Center
05:44AM 38.5356 -96.5392 69° East 464 534 39,000  Level Kansas City Center
05:45AM 38.5797 -96.3925 69° East 464 534 39,000  Level Kansas City Center
05:46AM 38.6236 -96.2447 69° East 464 534 39,000  Level Kansas City Center
05:47AM 38.6675 -96.0964 69° East 466 536 39,000  Level Kansas City Center
05:48AM 38.7183 -95.9236 69° East 466 536 39,000  Level Kansas City Center
05:49AM 38.7614 -95.7769 69° East 462 532 39,000  Level Kansas City Center
05:50AM 38.8053 -95.6292 69° East 464 534 39,000  Level Kansas City Center
05:51AM 38.8531 -95.4569 70° East 461 531 39,000  Level Kansas City Center
05:52AM 38.8956 -95.3083 70° East 466 536 39,000  Level Kansas City Center
05:53AM 38.9383 -95.1575 70° East 465 535 39,000  Level Kansas City Center
05:54AM 38.9861 -94.9875 70° East 465 535 39,000  Level Kansas City Center
05:55AM 39.0272 -94.8397 70° East 464 534 39,000  Level Kansas City Center
05:56AM 39.0694 -94.6900 70° East 466 536 39,000  Level Kansas City Center
05:57AM 39.1114 -94.5394 70° East 469 540 39,000  Level Kansas City Center
05:58AM 39.1617 -94.3658 69° East 466 536 39,000  Level Kansas City Center
05:59AM 39.2028 -94.2158 70° East 464 534 39,000  Level Kansas City Center
06:00AM 39.2436 -94.0656 71° East 464 534 39,000  Level Kansas City Center
06:01AM 39.2903 -93.8917 71° East 460 529 39,000  Level Kansas City Center
06:02AM 39.3331 -93.7342 71° East 457 526 39,000  Level Kansas City Center
06:03AM 39.3744 -93.5864 70° East 454 522 39,000  Level Kansas City Center
06:04AM 39.4144 -93.4358 71° East 449 517 39,000  Level Kansas City Center
06:05AM 39.4539 -93.2853 71° East 447 514 39,000  Level Kansas City Center
06:06AM 39.4931 -93.1369 71° East 443 510 39,000  Level Kansas City Center
06:07AM 39.5319 -92.9864 71° East 446 513 39,000  Level Kansas City Center
06:08AM 39.5700 -92.8364 72° East 445 512 39,000  Level Kansas City Center
06:09AM 39.6086 -92.6861 72° East 443 510 39,000  Level Kansas City Center
06:10AM 39.6467 -92.5381 71° East 442 509 39,000  Level Kansas City Center
06:11AM 39.6856 -92.3889 71° East 443 510 39,000  Level Kansas City Center
06:12AM 39.7228 -92.2389 72° East 442 509 39,000  Level Kansas City Center
06:13AM 39.7611 -92.0892 72° East 443 510 39,000  Level Kansas City Center
06:14AM 39.7992 -91.9394 72° East 444 511 39,000  Level Kansas City Center
06:15AM 39.8364 -91.7886 72° East 444 511 39,000  Level Kansas City Center
06:16AM 39.8744 -91.6367 72° East 445 512 39,000  Level Kansas City Center
06:17AM 39.9119 -91.4844 72° East 446 513 39,000  Level Kansas City Center
06:18AM 39.9489 -91.3336 72° East 444 511 39,000  Level Kansas City Center
06:19AM 39.9911 -91.1517 73° East 444 511 39,000  Level Kansas City Center
06:20AM 40.0281 -90.9981 73° East 447 514 39,000  Level Kansas City Center
06:21AM 40.0631 -90.8522 73° East 445 512 39,000  Level Kansas City Center
06:22AM 40.0989 -90.6981 73° East 445 512 39,000  Level Kansas City Center
06:23AM 40.1375 -90.5472 71° East 441 507 39,000  Level Kansas City Center
06:24AM 40.1733 -90.3939 73° East 441 507 39,000  Level Kansas City Center
06:25AM 40.1939 -90.3006 74° East 442 509 39,000  Level Chicago Center
06:26AM 40.2286 -90.1467 73° East 445 512 39,000  Level Chicago Center
06:27AM 40.2647 -89.9928 73° East 444 511 39,000  Level Chicago Center
06:28AM 40.2992 -89.8383 74° East 446 513 39,000  Level Chicago Center
06:29AM 40.3336 -89.6844 74° East 445 512 39,000  Level Chicago Center
06:30AM 40.3697 -89.5306 73° East 447 514 39,000  Level Chicago Center
06:31AM 40.4042 -89.3756 74° East 447 514 39,000  Level Chicago Center
06:32AM 40.4381 -89.2225 74° East 442 509 39,000  Level Chicago Center
06:33AM 40.4722 -89.0656 74° East 447 514 39,000  Level Chicago Center
06:34AM 40.5069 -88.9111 73° East 444 511 39,000  Level Chicago Center
06:35AM 40.5403 -88.7625 74° East 439 505 39,000  Level Chicago Center
06:36AM 40.5733 -88.6056 74° East 448 516 39,000  Level Chicago Center
06:37AM 40.6072 -88.4506 74° East 447 514 39,000  Level Chicago Center
06:38AM 40.6411 -88.3000 73° East 439 505 39,000  Level Chicago Center
06:39AM 40.6800 -88.1119 75° East 446 513 39,000  Level Chicago Center
06:40AM 40.7136 -87.9600 74° East 439 505 39,000  Level Chicago Center
06:41AM 40.7456 -87.8044 75° East 443 510 39,000  Level Chicago Center
06:42AM 40.7786 -87.6489 74° East 445 512 39,000  Level Chicago Center
06:43AM 40.8106 -87.4919 75° East 447 514 39,000  Level Chicago Center
06:44AM 40.8425 -87.3364 75° East 446 513 39,000  Level Chicago Center
06:45AM 40.8747 -87.1792 75° East 447 514 39,000  Level Chicago Center
06:46AM 40.9069 -87.0214 75° East 448 516 39,000  Level Chicago Center
06:47AM 40.9375 -86.8647 75° East 446 513 39,000  Level Chicago Center
06:48AM 40.9686 -86.7125 75° East 443 510 39,000  Level Chicago Center
06:49AM 40.9992 -86.5556 75° East 443 510 39,000  Level Chicago Center
06:50AM 41.0306 -86.3972 75° East 446 513 39,000  Level Chicago Center
06:51AM 41.0606 -86.2394 76° East 444 511 39,000  Level Chicago Center
06:52AM 41.0917 -86.0828 75° East 444 511 39,000  Level Chicago Center
06:53AM 41.1206 -85.9231 76° East 446 513 39,000  Level Chicago Center
06:54AM 41.1497 -85.7653 76° East 446 513 39,000  Level Chicago Center
06:55AM 41.1792 -85.6056 76° East 448 516 39,000  Level Chicago Center
06:56AM 41.2078 -85.4497 76° East 443 510 39,000  Level Chicago Center
06:57AM 41.2353 -85.2939 77° East 440 506 39,000  Level Chicago Center
06:58AM 41.2703 -85.1058 76° East 441 507 39,000  Level Chicago Center
06:59AM 41.2989 -84.9500 76° East 440 506 39,000  Level Chicago Center
07:00AM 41.3275 -84.7947 76° East 437 503 39,000  Level Chicago Center
07:01AM 41.3544 -84.6394 77° East 434 499 39,000  Level Chicago Center
07:02AM 41.3825 -84.4842 76° East 434 499 39,000  Level Chicago Center
07:03AM 41.4094 -84.3314 77° East 430 495 39,000  Level Chicago Center
07:04AM 41.4281 -84.1744 81° East 431 496 39,000  Level Chicago Center
07:05AM 41.4425 -84.0100 83° East 427 491 39,000  Level Cleveland Center
07:06AM 41.4564 -83.8494 83° East 437 503 39,000  Level Cleveland Center
07:07AM 41.4706 -83.6925 83° East 432 497 39,000  Level Cleveland Center
07:08AM 41.4858 -83.5367 82° East 429 494 39,000  Level Cleveland Center
07:09AM 41.5014 -83.3794 82° East 431 496 39,000  Level Cleveland Center
07:10AM 41.5147 -83.2219 83° East 430 495 39,000  Level Cleveland Center
07:11AM 41.5306 -83.0417 83° East 430 495 39,000  Level Cleveland Center
07:12AM 41.5453 -82.8842 83° East 427 491 39,000  Level Cleveland Center
07:13AM 41.5589 -82.7264 83° East 424 488 39,000  Level Cleveland Center
07:14AM 41.5711 -82.5681 84° East 424 488 39,000  Level Cleveland Center
07:16AM 41.5975 -82.2500 84° East 425 489 39,000  Level Cleveland Center
07:17AM 41.6103 -82.0889 84° East 430 495 39,000  Level Cleveland Center
07:18AM 41.6231 -81.9272 84° East 433 498 39,000  Level Cleveland Center
07:19AM 41.6358 -81.7658 84° East 431 496 39,000  Level Cleveland Center
07:20AM 41.6478 -81.6019 84° East 434 499 39,000  Level Cleveland Center
07:21AM 41.6594 -81.4389 84° East 434 499 39,000  Level Cleveland Center
07:22AM 41.6706 -81.2775 85° East 431 496 39,000  Level Cleveland Center
07:23AM 41.6819 -81.1153 85° East 433 498 39,000  Level Cleveland Center
07:24AM 41.6933 -80.9558 84° East 429 494 39,000  Level Cleveland Center
07:25AM 41.7050 -80.7950 84° East 430 495 39,000  Level Cleveland Center
07:26AM 41.7156 -80.6356 85° East 428 493 39,000  Level Cleveland Center
07:27AM 41.7258 -80.4750 85° East 430 495 39,000  Level Cleveland Center
07:28AM 41.7356 -80.3144 85° East 430 495 39,000  Level Cleveland Center
07:29AM 41.7469 -80.1533 85° East 430 495 39,000  Level Cleveland Center
07:30AM 41.7561 -79.9947 86° East 428 493 39,000  Level Cleveland Center
07:31AM 41.7664 -79.8350 85° East 427 491 39,000  Level Cleveland Center
07:32AM 41.7756 -79.6744 86° East 428 493 39,000  Level Cleveland Center
07:33AM 41.7836 -79.5289 86° East 423 487 39,000  Level Cleveland Center
07:34AM 41.7947 -79.3408 85° East 424 488 39,000  Level Cleveland Center
07:35AM 41.8011 -79.1989 86° East 426 490 39,000  Level Cleveland Center
07:36AM 41.8094 -79.0431 86° East 423 487 39,000  Level Cleveland Center
07:37AM 41.8192 -78.8714 86° East 419 482 39,000  Level Cleveland Center
07:38AM 41.8264 -78.7164 86° East 417 480 39,000 -60 Level Cleveland Center
07:39AM 41.8344 -78.5625 86° East 416 479 38,900 -600 Descending Cleveland Center
07:40AM 41.8419 -78.4092 86° East 415 478 37,800 -1,080 Descending Cleveland Center
07:42AM 41.8489 -78.2506 87° East 424 488 36,800 -1,020 Descending Cleveland Center
07:43AM 41.8556 -78.0906 87° East 429 494 35,800 -900 Descending Cleveland Center
07:44AM 41.8625 -77.9269 87° East 438 504 35,000 -420 Descending Cleveland Center
07:45AM 41.8422 -77.7631 99° East 451 519 35,000  Level Cleveland Center
07:46AM 41.7983 -77.5956 109° East 472 543 35,000  Level Cleveland Center
07:47AM 41.7511 -77.4214 110° East 471 542 35,000  Level Cleveland Center
07:48AM 41.7075 -77.2567 109° East 472 543 35,000  Level Cleveland Center
07:49AM 41.6636 -77.0936 110° East 470 541 35,000 -360 Level Cleveland Center
07:50AM 41.6189 -76.9317 110° East 469 540 34,300 -1,620 Descending Cleveland Center
07:51AM 41.5689 -76.7436 110° East 472 543 31,800 -2,400 Descending Cleveland Center
07:52AM 41.5214 -76.5747 111° Southeast 485 558 29,500 -2,340 Descending Cleveland Center
07:53AM 41.4758 -76.4108 110° East 496 571 27,100 -2,460 Descending Cleveland Center
07:54AM 41.4283 -76.2378 110° East 500 575 24,500 -2,760 Descending Cleveland Center
07:55AM 41.3642 -76.0092 110° East 507 583 21,200 -2,760 Descending New York Center
07:56AM 41.3153 -75.8425 111° Southeast 489 563 18,600 -2,340 Descending New York Center
07:57AM 41.2697 -75.6844 111° Southeast 476 548 16,600 -2,400 Descending New York Center
07:58AM 41.2236 -75.5375 113° Southeast 447 514 13,900 -1,800 Descending New York Center
07:59AM 41.1750 -75.3992 115° Southeast 421 484 13,000 -900 Descending New York Center
08:00AM 41.1414 -75.2978 114° Southeast 366 421 12,100 -1,560 Descending New York Center
08:01AM 41.1061 -75.1853 113° Southeast 309 356 9,900 -2,100 Descending New York Center
08:02AM 41.0722 -75.0922 116° Southeast 284 327 8,000 -1,500 Descending New York Center
08:03AM 41.0422 -74.9994 113° Southeast 277 319 6,900 -900 Descending New York Center
08:04AM 41.0139 -74.9178 115° Southeast 277 319 6,300 -540 Descending New York Center
08:05AM 41.0111 -74.8133 92° East 277 319 5,900 -780 Descending New York Center
08:06AM 41.0128 -74.7033 89° East 272 313 4,800 -1,080 Descending New York Center
08:07AM 41.0161 -74.6044 87° East 272 313 3,800 -960 Descending New York Center
08:08AM 41.0192 -74.5058 88° East 272 313 2,900 -420 Descending New York Center
08:09AM 41.0197 -74.4206 89° East 252 290 3,000  Climbing New York Center
08:10AM 41.0225 -74.3300 88° East 234 269 3,000 -420 Level New York Center
08:11AM 41.0333 -74.2167 83° East 249 287 2,100 -420 Descending New York TRACON
08:12AM 41.0000 -74.1500 124° Southeast 212 244 2,100  Level New York TRACON
08:13AM 40.9833 -74.0833 108° East 191 220 2,100 -120 Level New York TRACON
08:14AM 40.9333 -74.0500 153° Southeast 155 178 1,900 -480 Descending New York TRACON
08:15AM 40.9000 -74.0500 180° South 133 153 1,200 -780 Descending New York TRACON
08:16AM 40.8667 -74.0500 180° South 125 144 500 -720 Descending New York TRACON